This is the latest recevied weather packets stored in our database for station/object DF9PV-5. If no packets are shown the sender has not sent any weather packets the latest 10 day(s).
| Time | Temp. | Humidity | Pressure | Rain* | Wind** | Luminosity | Snow |
|---|---|---|---|---|---|---|---|
| 1777667425 | 14.44° C | 56% | 1022.4 hPa | 0 mm | - | - | - |
| 1777666532 | 15° C | 54% | 1022.4 hPa | 0 mm | - | - | - |
| 1777663825 | 16.67° C | 50% | 1022.3 hPa | 0 mm | - | - | - |
| 1777663521 | 16.67° C | 48% | 1022.2 hPa | 0 mm | - | - | - |
| 1777663230 | 17.22° C | 47% | 1022.3 hPa | 0 mm | - | - | - |
| 1777661153 | - | - | 1022.2 hPa | 0 mm | - | - | - |
| 1777659361 | 21.67° C | 32% | 1022.1 hPa | 0 mm | - | - | - |
| 1777657250 | 22.22° C | 29% | 1022 hPa | 0 mm | - | - | - |
| 1777656929 | 22.78° C | 29% | 1022 hPa | 0 mm | - | - | - |
| 1777656638 | 22.78° C | 29% | 1022 hPa | 0 mm | - | - | - |
| 1777656376 | 22.78° C | 28% | 1022.1 hPa | 0 mm | - | - | - |
| 1777654222 | 23.33° C | 27% | 1022.3 hPa | 0 mm | - | - | - |
| 1777653921 | 23.89° C | 27% | 1022.3 hPa | 0 mm | - | - | - |
| 1777653630 | 23.89° C | 27% | 1022.4 hPa | 0 mm | - | - | - |
| 1777652734 | 23.89° C | 27% | 1022.5 hPa | 0 mm | - | - | - |
| 1777650942 | 23.33° C | 26% | 1022.7 hPa | 0 mm | - | - | - |
| 1777649760 | 23.33° C | 27% | 1022.9 hPa | 0 mm | - | - | - |
| 1777649481 | 23.33° C | 27% | 1023 hPa | 0 mm | - | - | - |
| 1777647654 | 22.78° C | 27% | 1023.3 hPa | 0 mm | - | - | - |
| 1777641362 | 22.78° C | 27% | 1024.2 hPa | 0 mm | - | - | - |
| 1777639841 | 22.78° C | 27% | 1024.6 hPa | 0 mm | - | - | - |
| 1777639230 | 23.33° C | 27% | 1024.7 hPa | 0 mm | - | - | - |
| 1777638625 | 22.78° C | 27% | 1024.8 hPa | 0 mm | - | - | - |
| 1777635326 | 22.78° C | 26% | 1025.5 hPa | 0 mm | - | - | - |
| 1777634721 | 22.78° C | 26% | 1025.5 hPa | 0 mm | - | - | - |
* Rain latest hour (hover to see other rain measurements)
** Current wind speed in m/s (hover to see current wind gust speed)